Terminal Aerodrome Forecast
Issued by NWS

Current Version | Previous Version | Graphics & Text | Print | Product List | Glossary On
Versions: 1 2 3 4 5 6 7 8 9 10 11 12 13 14 15 16 17 18 19
000
FTUS41 KRNK 162103 AAA
TAFLWB
TAF AMD
KLWB 162103Z 1621/1718 31010G20KT P6SM OVC026
      TEMPO 1621/1622 4SM -SHRA OVC007
     FM162200 31010KT P6SM BKN035
      TEMPO 1622/1624 5SM -SHRA OVC025
     FM170000 32008KT P6SM BKN025
     FM171400 13005KT 2SM -SN OVC020=

USA.gov is the U.S. government's official web portal to all federal, state and local government web resources and services.